createdAt,value
2023-01-19T08:11:20.803Z,78.75
2023-01-19T10:28:47.653Z,146.25
2023-01-19T10:29:49.720Z,146.25
2023-01-19T10:30:51.742Z,146.25
2023-01-19T10:31:53.783Z,146.25
2023-01-19T10:32:55.771Z,146.25
2023-01-19T10:33:57.808Z,146.25
2023-01-19T10:34:59.861Z,151.87
2023-01-19T10:36:01.892Z,151.87
2023-01-19T10:37:03.888Z,151.87
2023-01-19T10:38:05.936Z,157.50
2023-01-19T10:39:07.946Z,151.87
2023-01-19T10:40:09.986Z,168.75
2023-01-19T10:41:11.979Z,213.75
2023-01-19T10:42:13.979Z,416.25
2023-01-19T10:43:15.241Z,551.25
2023-01-19T10:44:17.290Z,545.62
2023-01-19T10:45:19.320Z,534.37
2023-01-19T10:46:21.366Z,528.75
2023-01-19T10:47:23.371Z,517.50
2023-01-19T10:48:25.391Z,523.12
2023-01-19T10:49:27.427Z,523.12
2023-01-19T10:50:29.428Z,528.75
2023-01-19T10:51:31.529Z,534.37
2023-01-19T10:52:33.523Z,540.00
2023-01-19T10:53:35.551Z,528.75
2023-01-19T10:54:37.596Z,528.75
2023-01-19T10:55:39.652Z,528.75
2023-01-19T10:56:41.661Z,528.75
2023-01-19T10:57:43.652Z,540.00
2023-01-19T10:58:45.687Z,528.75
2023-01-19T10:59:47.734Z,528.75
2023-01-19T11:00:49.944Z,528.75
2023-01-19T11:01:52.357Z,517.50
2023-01-19T11:02:53.370Z,511.87
2023-01-19T11:03:55.428Z,511.87
2023-01-19T11:04:57.452Z,517.50
2023-01-19T11:05:59.469Z,523.12
2023-01-19T11:07:01.481Z,483.75
2023-01-19T11:08:03.507Z,483.75
2023-01-19T11:09:05.545Z,472.50
2023-01-19T11:10:07.592Z,466.87
2023-01-19T11:11:09.605Z,466.87
2023-01-19T11:12:11.629Z,466.87
2023-01-19T11:13:13.655Z,455.62
2023-01-19T11:14:15.808Z,438.75
2023-01-19T11:15:17.924Z,433.12
2023-01-19T11:16:19.955Z,433.12
2023-01-19T11:17:21.944Z,427.50
2023-01-19T11:18:24.031Z,427.50
2023-01-19T11:19:26.071Z,433.12
2023-01-19T11:20:28.133Z,438.75
2023-01-19T11:21:30.163Z,438.75
2023-01-19T11:22:32.190Z,438.75
2023-01-19T11:23:34.315Z,438.75
2023-01-19T11:24:36.335Z,433.12
2023-01-19T11:25:38.410Z,427.50
2023-01-19T11:26:40.634Z,427.50
2023-01-19T11:27:41.582Z,427.50
2023-01-19T11:28:45.034Z,421.87
2023-01-19T11:29:44.904Z,416.25
2023-01-19T11:30:47.062Z,416.25
2023-01-19T11:31:49.116Z,421.87
2023-01-19T11:32:51.119Z,421.87
2023-01-19T11:33:53.140Z,421.87
2023-01-19T11:34:55.177Z,421.87
2023-01-19T11:35:57.224Z,421.87
2023-01-19T11:36:59.249Z,421.87
2023-01-19T11:38:01.274Z,421.87
2023-01-19T11:39:03.329Z,416.25
2023-01-19T11:40:05.363Z,416.25
2023-01-19T11:41:07.951Z,393.75
2023-01-19T11:42:08.858Z,320.62
2023-01-19T11:43:10.887Z,241.87
2023-01-19T11:44:12.901Z,185.62
2023-01-19T11:45:14.945Z,174.37
2023-01-19T11:46:16.964Z,168.75
2023-01-19T11:47:18.975Z,168.75
2023-01-19T11:48:20.994Z,168.75
2023-01-19T11:49:23.023Z,168.75
2023-01-19T11:50:25.037Z,163.12
2023-01-19T11:51:27.040Z,163.12
2023-01-19T11:52:29.043Z,163.12
2023-01-19T11:53:31.055Z,157.50
2023-01-19T11:54:33.069Z,157.50
2023-01-19T11:55:35.075Z,157.50
2023-01-19T11:56:37.092Z,157.50
2023-01-19T11:57:39.147Z,157.50
2023-01-19T11:58:41.176Z,157.50
2023-01-19T11:59:43.194Z,151.87
2023-01-19T12:00:45.222Z,151.87
2023-01-19T12:01:47.263Z,151.87
2023-01-19T12:02:49.271Z,151.87
2023-01-19T12:03:53.254Z,151.87
2023-01-19T12:04:53.313Z,151.87
2023-01-19T12:05:55.342Z,151.87
2023-01-19T12:06:57.384Z,151.87
2023-01-19T12:07:59.865Z,151.87
2023-01-19T12:09:00.949Z,151.87
2023-01-19T12:10:02.968Z,151.87
2023-01-19T12:11:04.969Z,151.87
2023-01-19T12:12:06.972Z,151.87
2023-01-19T12:13:08.983Z,151.87
2023-01-19T12:14:11.002Z,151.87
2023-01-19T12:15:13.028Z,151.87
2023-01-19T12:16:15.097Z,151.87
2023-01-19T12:17:17.123Z,151.87
2023-01-19T12:18:19.113Z,151.87
2023-01-19T12:19:21.129Z,151.87
2023-01-19T12:20:23.137Z,151.87
2023-01-19T12:21:25.172Z,151.87
2023-01-19T12:22:36.473Z,151.87
2023-01-19T12:23:28.601Z,151.87
2023-01-19T12:24:30.682Z,151.87
2023-01-19T12:25:32.694Z,151.87
2023-01-19T12:26:34.681Z,146.25
2023-01-19T12:27:36.800Z,146.25
2023-01-19T12:28:38.806Z,146.25
2023-01-19T12:29:41.169Z,146.25
2023-01-19T12:30:42.401Z,146.25
2023-01-19T12:31:44.561Z,146.25
2023-01-19T12:32:45.536Z,146.25
2023-01-19T12:33:47.537Z,146.25
2023-01-19T12:34:49.559Z,146.25
2023-01-19T12:35:51.565Z,146.25
2023-01-19T12:36:53.592Z,140.62
2023-01-19T12:37:55.603Z,140.62
2023-01-19T12:38:57.627Z,140.62
2023-01-19T12:39:59.649Z,140.62
2023-01-19T12:41:01.673Z,140.62
2023-01-19T12:42:03.716Z,146.25
2023-01-19T12:43:05.713Z,146.25
2023-01-19T12:44:07.714Z,146.25
2023-01-19T12:45:09.741Z,146.25
2023-01-19T12:46:11.814Z,146.25
2023-01-19T12:47:13.854Z,146.25
2023-01-19T12:48:16.012Z,146.25
2023-01-19T12:49:18.020Z,146.25
2023-01-19T12:50:20.066Z,146.25
2023-01-19T12:51:22.089Z,151.87
2023-01-19T12:52:24.091Z,151.87
2023-01-19T12:53:26.122Z,151.87
2023-01-19T12:54:28.942Z,151.87
2023-01-19T12:55:29.858Z,151.87
2023-01-19T12:56:31.855Z,163.12
2023-01-19T12:57:33.861Z,168.75
2023-01-19T12:58:35.868Z,180.00
2023-01-19T12:59:37.874Z,185.62
2023-01-19T13:00:39.912Z,180.00
2023-01-19T13:01:42.009Z,258.75
2023-01-19T13:02:44.082Z,303.75
2023-01-19T13:03:46.069Z,320.62
2023-01-19T13:04:48.074Z,331.87
2023-01-19T13:05:50.098Z,315.00
2023-01-19T13:06:52.125Z,298.12
2023-01-19T13:07:54.149Z,286.87
2023-01-19T13:08:56.165Z,236.25
2023-01-19T13:09:58.187Z,219.37
2023-01-19T13:11:00.228Z,196.87
2023-01-19T13:12:02.343Z,191.25
2023-01-19T13:13:04.386Z,168.75
2023-01-19T13:14:06.442Z,151.87
2023-01-19T13:15:08.483Z,168.75
2023-01-19T13:16:10.562Z,191.25
2023-01-19T13:17:12.577Z,202.50
2023-01-19T13:18:14.601Z,213.75
2023-01-19T13:19:16.631Z,219.37
2023-01-19T13:20:18.652Z,230.62
2023-01-19T13:21:20.669Z,230.62
2023-01-19T13:22:22.691Z,230.62
2023-01-19T13:23:24.692Z,219.37
2023-01-19T13:24:26.731Z,213.75
2023-01-19T13:25:29.013Z,202.50
2023-01-19T13:26:29.930Z,196.87
2023-01-19T13:27:31.956Z,185.62
2023-01-19T13:28:33.955Z,174.37
2023-01-19T13:29:36.065Z,163.12
2023-01-19T13:30:38.236Z,163.12
2023-01-19T13:31:39.232Z,151.87
2023-01-19T13:32:41.231Z,140.62
2023-01-19T13:33:43.247Z,129.37
2023-01-19T13:34:45.269Z,123.75
2023-01-19T13:35:47.295Z,118.12
2023-01-19T13:36:49.335Z,112.50
2023-01-19T13:37:51.360Z,106.87
2023-01-19T13:38:53.343Z,106.87
2023-01-19T13:39:55.390Z,106.87
2023-01-19T13:40:57.461Z,101.25
2023-01-19T13:41:59.452Z,95.62
2023-01-19T13:43:01.478Z,84.37
2023-01-19T13:44:03.480Z,73.12
2023-01-19T13:45:05.577Z,73.12
2023-01-19T13:46:07.690Z,73.12
2023-01-19T13:47:09.677Z,67.50
2023-01-19T13:48:11.688Z,67.50
2023-01-19T13:49:13.713Z,67.50
2023-01-19T13:50:15.704Z,61.87
2023-01-19T13:51:17.722Z,67.50
2023-01-19T13:52:19.723Z,67.50
2023-01-19T13:53:21.772Z,67.50
2023-01-19T13:54:23.816Z,67.50
2023-01-19T13:55:25.820Z,67.50
2023-01-19T13:56:27.855Z,67.50
2023-01-19T13:57:29.886Z,67.50
2023-01-19T13:58:31.902Z,73.12
2023-01-19T13:59:33.881Z,78.75
2023-01-19T14:00:35.909Z,78.75
2023-01-19T14:01:37.298Z,78.75
2023-01-19T14:02:38.599Z,78.75
2023-01-19T14:03:39.565Z,78.75
2023-01-19T14:04:41.596Z,73.12
2023-01-19T14:05:43.723Z,73.12
2023-01-19T14:06:45.797Z,67.50
2023-01-19T14:07:47.844Z,61.87
2023-01-19T14:08:49.890Z,61.87
2023-01-19T14:09:54.852Z,61.87
2023-01-19T14:10:53.722Z,61.87
2023-01-19T14:11:55.762Z,61.87
2023-01-19T14:12:59.464Z,61.87
2023-01-19T14:13:59.455Z,61.87
2023-01-19T14:15:01.543Z,56.25
2023-01-19T14:16:03.576Z,56.25
2023-01-19T14:17:05.564Z,61.87
2023-01-19T14:18:07.604Z,56.25
2023-01-19T14:19:09.589Z,50.62
2023-01-19T14:20:11.595Z,50.62
2023-01-19T14:21:13.623Z,50.62
2023-01-19T14:22:15.663Z,50.62
2023-01-19T14:23:17.687Z,50.62
2023-01-19T14:24:19.719Z,50.62
2023-01-19T14:25:21.737Z,45.00
2023-01-19T14:26:23.747Z,45.00
2023-01-19T14:27:25.778Z,45.00
2023-01-19T14:28:27.773Z,39.37
2023-01-19T14:29:31.747Z,33.75
2023-01-19T14:30:31.402Z,28.12
2023-01-19T14:31:33.519Z,28.12
2023-01-19T14:32:35.547Z,28.12
2023-01-19T14:33:37.551Z,28.12
2023-01-19T14:34:39.555Z,22.50
2023-01-19T14:35:41.585Z,22.50
2023-01-19T14:36:43.621Z,16.87
2023-01-19T14:37:45.704Z,16.87
2023-01-19T14:38:47.744Z,16.87
2023-01-19T14:39:49.765Z,16.87
2023-01-19T14:40:51.800Z,22.50
2023-01-19T14:41:53.836Z,22.50
2023-01-19T14:42:55.854Z,22.50
2023-01-19T14:43:57.896Z,16.87
2023-01-19T14:44:59.919Z,16.87
2023-01-19T14:46:01.932Z,16.87
2023-01-19T14:47:03.942Z,16.87
2023-01-19T14:48:05.962Z,16.87
2023-01-19T14:49:07.999Z,11.25
2023-01-19T14:50:09.987Z,11.25
2023-01-19T14:51:11.991Z,11.25
2023-01-19T14:52:13.989Z,11.25
2023-01-19T14:53:15.984Z,11.25
2023-01-19T14:54:17.989Z,11.25
2023-01-19T14:55:20.005Z,11.25
2023-01-19T14:56:22.026Z,11.25
2023-01-19T14:57:24.050Z,11.25
2023-01-19T14:58:26.076Z,11.25
2023-01-19T14:59:28.094Z,11.25
2023-01-19T15:00:30.168Z,11.25
2023-01-19T15:01:32.347Z,11.25
2023-01-19T15:02:33.352Z,11.25
2023-01-19T15:03:43.993Z,5.62
2023-01-19T15:04:36.775Z,5.62
2023-01-19T15:05:38.836Z,5.62
2023-01-19T15:06:40.821Z,5.62
2023-01-19T15:07:42.855Z,5.62
2023-01-19T15:08:44.851Z,5.62
2023-01-19T15:09:46.861Z,5.62
2023-01-19T15:10:49.866Z,5.62
2023-01-19T15:11:50.790Z,5.62
2023-01-19T15:12:52.824Z,5.62
2023-01-19T15:13:54.813Z,5.62
2023-01-19T15:14:56.839Z,5.62
2023-01-19T15:15:58.877Z,5.62
2023-01-19T15:17:00.870Z,5.62
2023-01-19T15:18:02.927Z,5.62
2023-01-19T15:19:04.966Z,5.62
2023-01-19T15:20:07.014Z,5.62
2023-01-19T15:21:09.010Z,5.62
2023-01-19T15:22:11.015Z,5.62
2023-01-19T15:23:13.053Z,5.62
2023-01-19T15:24:17.683Z,5.62
2023-01-19T15:25:16.620Z,5.62
2023-01-19T15:26:18.622Z,5.62
2023-01-19T15:27:20.643Z,5.62
2023-01-19T15:28:22.684Z,5.62
2023-01-19T15:29:24.757Z,5.62
2023-01-19T15:30:26.865Z,5.62
2023-01-19T15:31:28.928Z,5.62
2023-01-19T15:32:30.908Z,5.62
2023-01-19T15:33:32.956Z,5.62
2023-01-19T15:34:34.978Z,5.62
2023-01-19T15:35:37.004Z,5.62
2023-01-19T15:36:39.023Z,5.62
2023-01-19T15:37:41.040Z,5.62
